Home > Products > Valid Products > TAF

000
FTUS46 KPDT 220200 AAA
TAFPSC
TAF AMD
KPSC 220253Z 2203/2224 34005KT 2SM -FZRA BR OVC005
      TEMPO 2203/2206 1SM -FZRA BR OVC003
     FM220600 24011KT 2SM BR OVC010
     FM221400 23012G22KT 5SM BR BKN120=



000
FTUS46 KPDT 220200 AAC
TAFALW
TAF AMD
KALW 220247Z 2203/2224 17018G28KT 6SM -RA BR FEW040 OVC050
     FM221200 21012G20KT 3SM -RA BR OVC015
     FM221800 23015G25KT 6SM -SHRA BR SCT020 BKN070=



000
FTUS46 KPDT 220200 AAA
TAFPDT
TAF AMD
KPDT 220237Z 2203/2224 15007KT 6SM -RA BR BKN045 OVC050
     FM220600 24010KT 3SM -RA BR OVC050
     FM220900 25012KT 2SM -RA BR OVC025
     FM221500 25014G22KT 6SM BR VCSH BKN050 BKN120=



000
FTUS46 KPDT 220200 AAB
TAFDLS
TAF AMD
KDLS 220228Z 2202/2224 28004KT 2SM -RA BR SCT004 OVC012
      TEMPO 2207/2210 1SM -RA BR SCT003 OVC007
     FM221200 30011KT 4SM BR VCSH SCT030 BKN050
     FM221800 30011KT 6SM BR BKN050=



000
FTUS46 KPDT 220100 AAB
TAFALW
TAF AMD
KALW 220113Z 2201/2224 20010KT 3SM -RA BR OVC050
      TEMPO 2201/2202 1 1/2SM RA BR OVC035
     FM220300 18012KT 3SM -RA BR SCT020 OVC050
     FM221200 21012G20KT 3SM -RA BR OVC015
     FM221800 23015G25KT 6SM -SHRA BR SCT020 BKN070=



000
FTUS46 KPDT 220100 AAA
TAFDLS
TAF AMD
KDLS 220111Z 2201/2224 VRB04KT 2SM -RA BR OVC008
     FM221200 30011KT 4SM BR VCSH SCT030 BKN050
     FM221800 30011KT 6SM BR BKN050=



000
FTUS46 KPDT 220100 AAA
TAFALW
TAF AMD
KALW 220108Z 2201/2224 VRB04KT 2SM -RA BR OVC050
      TEMPO 2201/2202 1 1/2SM RA BR
     FM220300 18012KT 3SM -RA BR SCT020 OVC050
     FM221200 21012G20KT 3SM -RA BR OVC015
     FM221800 23015G25KT 6SM -SHRA BR SCT020 BKN070=



000
FTUS46 KPDT 220100 AAA
TAFYKM
TAF AMD
KYKM 220103Z 2201/2224 VRB03KT 2SM -FZRA BR OVC010
     FM220500 28004KT 3SM BR SCT020 BKN120
     FM221500 27010KT P6SM SCT120=



000
FTUS46 KPDT 220000 AAA
TAFRDM
TAF AMD
KRDM 220009Z 2200/2224 17015G26KT P6SM -RA OVC070
     FM220700 23011KT P6SM -RA BKN025 OVC040
     FM221300 28012KT P6SM VCSH BKN040=



000
FTUS46 KPDT 212300
TAFYKM
TAF
KYKM 212335Z 2200/2224 VRB03KT 1SM -FZRA BR BKN010 OVC040
     FM220500 28004KT 3SM BR SCT020 BKN120
     FM221500 27010KT P6SM SCT120=



000
FTUS46 KPDT 212300
TAFPSC
TAF
KPSC 212335Z 2200/2224 34005KT 1SM -FZRA BR OVC002
      TEMPO 2200/2202 1/2SM -FZRA FG
     FM220600 24011KT 2SM BR OVC010
     FM221400 23012G22KT 5SM BR BKN120=



000
FTUS46 KPDT 212300
TAFRDM
TAF
KRDM 212335Z 2200/2224 17011KT P6SM -RA OVC070
     FM220700 23011KT P6SM -RA BKN025 OVC040
     FM221300 28012KT P6SM VCSH BKN040=



000
FTUS46 KPDT 212300
TAFALW
TAF
KALW 212335Z 2200/2224 VRB04KT 1SM -RA BR OVC090
      TEMPO 2200/2202 1/2SM -RA FG
     FM220200 18012KT 1SM -RA BR SCT020 OVC050
     FM221200 21012G20KT 3SM -RA BR OVC015
     FM221800 23015G25KT 6SM -SHRA BR SCT020 BKN070=



000
FTUS46 KPDT 212300
TAFPDT
TAF
KPDT 212335Z 2200/2224 15007KT 5SM -RA BR BKN070 OVC090
     FM220600 24010KT 3SM -RA BR OVC050
     FM220900 25012KT 2SM -RA BR OVC025
     FM221500 25014G22KT 6SM BR VCSH BKN050 BKN120=



000
FTUS46 KPDT 212300
TAFDLS
TAF
KDLS 212335Z 2200/2224 VRB04KT 1SM -RA BR OVC008
      TEMPO 2200/2202 1/2SM -RA FG OVC005
     FM221200 30011KT 4SM BR VCSH SCT030 BKN050
     FM221800 30011KT 6SM BR BKN050=



000
FTUS46 KPDT 212200 AAB
TAFPSC
TAF AMD
KPSC 212212Z 2122/2218 29005KT 1SM -RA BR OVC002
     FM220600 24009KT 6SM -RA BR SCT020 OVC050
     FM221400 23012G20KT 6SM BR BKN120=



000
FTUS46 KPDT 212100 AAA
TAFPSC
TAF AMD
KPSC 212129Z 2121/2218 29005KT 2SM BR OVC004
     FM220000 VRB05KT 5SM -RA BR SCT015 OVC040
     FM220600 24009KT 6SM -RA BR SCT020 OVC050
     FM221400 23012G20KT 6SM BR BKN120=



000
FTUS46 KPDT 212100 AAC
TAFALW
TAF AMD
KALW 212108Z 2121/2218 VRB04KT 3SM BR OVC070
      TEMPO 2121/2124 1SM BR
     FM220200 19012KT 3SM -RA BR SCT020 OVC050
     FM221200 22012G20KT 5SM -RA BR OVC015=



000
FTUS46 KPDT 212000 AAB
TAFALW
TAF AMD
KALW 212028Z 2120/2218 VRB04KT 3SM BR BKN120
     FM212100 13007KT 3SM BR OVC070
     FM220200 19012KT 3SM -RA BR SCT020 OVC050
     FM221200 22012G20KT 5SM -RA BR OVC015=



000
FTUS46 KPDT 211900 AAA
TAFYKM
TAF AMD
KYKM 211904Z 2119/2218 VRB03KT 2SM -RA BR SCT020 OVC050
     FM220400 28004KT 3SM -SHRA BR SCT020 OVC070
     FM221200 27007KT 6SM BR SCT120=



000
FTUS46 KPDT 211900 AAA
TAFPDT
TAF AMD
KPDT 211903Z 2119/2218 VRB03KT 6SM BR BKN070
     FM212100 13008KT 6SM BR OVC070
     FM220100 15008KT 3SM -RA BR SCT025 OVC040
     FM220600 24010KT 3SM -RA BR OVC030
     FM221200 25014G22KT 6SM BR VCSH BKN090=



000
FTUS46 KPDT 211900 AAA
TAFDLS
TAF AMD
KDLS 211902Z 2119/2218 09004KT 2SM -RA BR OVC009
     FM220200 32005KT 4SM -RA BR OVC015
     FM221200 30012KT 6SM BR VCSH SCT030 BKN050=



000
FTUS46 KPDT 211800 AAA
TAFALW
TAF AMD
KALW 211825Z 2118/2218 20004KT 3SM BR FEW050 BKN080
      TEMPO 2118/2121 1SM BR
     FM212100 13007KT 3SM BR OVC070
     FM220200 19012KT 3SM -RA BR SCT020 OVC050
     FM221200 22012G20KT 5SM -RA BR OVC015=



000
FTUS46 KPDT 211700
TAFYKM
TAF
KYKM 211730Z 2118/2218 VRB03KT 2SM BR VCSH BKN010 OVC045
     FM212000 VRB03KT 3SM -RA BR OVC020
     FM220400 28004KT 3SM -SHRA BR SCT020 OVC070
     FM221200 27007KT 6SM BR SCT120=



000
FTUS46 KPDT 211700
TAFDLS
TAF
KDLS 211730Z 2118/2218 09003KT 3SM BR VCSH BKN010 OVC120
     FM212100 09004KT 5SM -RA BR BKN020 OVC040
     FM220200 32005KT 4SM -RA BR OVC015
     FM221200 30012KT 6SM BR VCSH SCT030 BKN050=



000
FTUS46 KPDT 211700
TAFALW
TAF
KALW 211730Z 2118/2218 09005KT 1SM BR FEW050 OVC080
      TEMPO 2118/2121 3SM BR
     FM212100 13007KT 3SM BR OVC070
     FM220200 19012KT 3SM -RA BR SCT020 OVC050
     FM221200 22012G20KT 5SM -RA BR OVC015=



000
FTUS46 KPDT 211700
TAFPSC
TAF
KPSC 211730Z 2118/2218 08004KT 2SM BR OVC006
     FM212100 08004KT 4SM BR SCT010 OVC080
     FM220000 VRB05KT 5SM -RA BR SCT015 OVC040
     FM220600 24009KT 6SM -RA BR SCT020 OVC050
     FM221400 23012G20KT 6SM BR BKN120=



000
FTUS46 KPDT 211700
TAFRDM
TAF
KRDM 211730Z 2118/2218 17009KT P6SM VCSH OVC120
     FM212000 17010KT P6SM -RA SCT030 OVC040
     FM220100 19012KT P6SM -RA OVC030
     FM220800 25012KT P6SM -SHRA BKN030 OVC050=



000
FTUS46 KPDT 211700
TAFPDT
TAF
KPDT 211730Z 2118/2218 11005KT 3SM BR BKN070
     FM212100 13008KT 3SM BR OVC070
     FM220100 15008KT 3SM -RA BR SCT025 OVC040
     FM220600 24010KT 3SM -RA BR OVC030
     FM221200 25014G22KT 6SM BR VCSH BKN090=



000
FTUS46 KPDT 211600 AAA
TAFALW
TAF AMD
KALW 211602Z 2116/2212 07005KT 1SM BR OVC050
     FM212000 17008KT 4SM BR OVC011
     FM220000 16012KT 4SM -RA BR OVC010=



000
FTUS46 KPDT 211600 AAA
TAFALW
TAF AMD
KALW 211602Z 2116/2212 07005KT 1SM BR OVC050
     FM212000 17008KT 4SM BR OVC011
     FM220000 16012KT 4SM -RA BR OVC010=



000
FTUS46 KPDT 211600 AAA
TAFPSC
TAF AMD
KPSC 211601Z 2116/2212 10004KT 1SM BR OVC005
     FM211800 04005KT 4SM BR SCT015 OVC080
     FM212300 VRB04KT 6SM -RA BR SCT020 OVC040=



000
FTUS46 KPDT 211600 AAA
TAFPSC
TAF AMD
KPSC 211601Z 2116/2212 10004KT 1SM BR OVC005
     FM211800 04005KT 4SM BR SCT015 OVC080
     FM212300 VRB04KT 6SM -RA BR SCT020 OVC040=



000
FTUS46 KPDT 211600 AAA
TAFPDT
TAF AMD
KPDT 211600Z 2116/2212 12008KT 4SM BR OVC080
     FM211800 14008KT 5SM BR OVC070
     FM220000 15010KT 5SM -RA BR SCT025 OVC040
     FM220900 24010KT 6SM -RA BR OVC030=



000
FTUS46 KPDT 211600 AAA
TAFPDT
TAF AMD
KPDT 211600Z 2116/2212 12008KT 4SM BR OVC080
     FM211800 14008KT 5SM BR OVC070
     FM220000 15010KT 5SM -RA BR SCT025 OVC040
     FM220900 24010KT 6SM -RA BR OVC030=



000
FTUS46 KPDT 211500 AAD
TAFDLS
TAF AMD
KDLS 211559Z 2116/2212 VRB03KT 3SM BR SCT010 OVC070
     FM211900 08004KT 6SM BR VCSH OVC050
     FM212100 09005KT 5SM -RA BR BKN020 OVC040
     FM220200 VRB02KT 3SM -RA BR OVC015=



000
FTUS46 KPDT 211500 AAD
TAFDLS
TAF AMD
KDLS 211559Z 2116/2212 VRB03KT 3SM BR SCT010 OVC070
     FM211900 08004KT 6SM BR VCSH OVC050
     FM212100 09005KT 5SM -RA BR BKN020 OVC040
     FM220200 VRB02KT 3SM -RA BR OVC015=



000
FTUS46 KPDT 211500 AAA
TAFYKM
TAF AMD
KYKM 211542Z 2116/2212 27005KT 2SM BR BKN006
     FM212000 VRB03KT 3SM -RA BR OVC020
     FM220200 30004KT 2SM -RA BR OVC015=



000
FTUS46 KPDT 211400 AAC
TAFDLS
TAF AMD
KDLS 211443Z 2115/2212 11003KT 4SM BR BKN010 OVC070
     FM211900 08004KT 6SM BR VCSH OVC050
     FM212100 09005KT 5SM -RA BR BKN020 OVC040
     FM220200 VRB02KT 3SM -RA BR OVC015=



000
FTUS46 KPDT 211400 AAB
TAFDLS
TAF AMD
KDLS 211421Z 2114/2212 11003KT 4SM BR BKN012 OVC070
     FM211900 08004KT 6SM BR VCSH OVC050
     FM212100 09005KT 5SM -RA BR BKN020 OVC040
     FM220200 VRB02KT 3SM -RA BR OVC015=



000
FTUS46 KPDT 211400 AAA
TAFPDT
TAF AMD
KPDT 211414Z 2114/2212 VRB03KT 1/4SM FZFG VV002
     FM211800 14006KT 5SM BR SCT007 OVC070
     FM220000 15010KT 5SM -RA BR SCT025 OVC040
     FM220900 24010KT 6SM -RA BR OVC030=



000
FTUS46 KPDT 211300 AAA
TAFDLS
TAF AMD
KDLS 211349Z 2114/2212 11003KT 4SM BR BKN009 OVC070
     FM211900 08004KT 6SM BR VCSH OVC050
     FM212100 09005KT 5SM -RA BR BKN020 OVC040
     FM220200 VRB02KT 3SM -RA BR OVC015=



000
FTUS46 KPDT 211100
TAFYKM
TAF
KYKM 211120Z 2112/2212 28005KT 3SM BR BKN070
     FM212000 VRB03KT 3SM -RA BR OVC020
     FM220200 30004KT 2SM -RA BR OVC015=



000
FTUS46 KPDT 211100
TAFALW
TAF
KALW 211120Z 2112/2212 VRB03KT 1/4SM FZFG OVC002
     FM211600 16004KT 1/2SM FZFG OVC003
     FM212000 17008KT 4SM BR OVC011
     FM220000 16012KT 4SM -RA BR OVC010=



000
FTUS46 KPDT 211100
TAFDLS
TAF
KDLS 211120Z 2112/2212 11003KT 5SM BR SCT015 OVC070
     FM211900 08004KT 6SM BR VCSH OVC050
     FM212100 09005KT 5SM -RA BR BKN020 OVC040
     FM220200 VRB02KT 3SM -RA BR OVC015=



000
FTUS46 KPDT 211100
TAFRDM
TAF
KRDM 211120Z 2112/2212 17008KT P6SM OVC050
     FM212100 17009KT P6SM -RA OVC040
     FM220100 19012KT P6SM -RA OVC035=



000
FTUS46 KPDT 211100
TAFPDT
TAF
KPDT 211120Z 2112/2212 VRB03KT 1/4SM FZFG VV002
     FM211400 31004KT 1/2SM FZFG OVC003
     FM211800 14006KT 5SM BR SCT007 OVC070
     FM220000 15010KT 5SM -RA BR SCT025 OVC040
     FM220900 24010KT 6SM -RA BR OVC030=



000
FTUS46 KPDT 211100
TAFPSC
TAF
KPSC 211120Z 2112/2212 30004KT 2SM BR OVC007
      TEMPO 2112/2116 1SM BR OVC004
     FM211600 33003KT 3SM BR OVC015
     FM211800 04005KT 6SM BR SCT015 OVC080
     FM212300 VRB04KT 6SM -RA BR SCT020 OVC040=



000
FTUS46 KPDT 210800 AAA
TAFPSC
TAF AMD
KPSC 210806Z 2108/2206 30004KT 1 1/2SM BR SCT015 SCT110
      TEMPO 2108/2112 1/2SM FZFG OVC005
     FM211200 33003KT 1SM BR OVC005
     FM211800 04005KT 6SM BR SCT015 OVC080
     FM220200 16006KT 6SM -RA BR SCT020 OVC070=



000
FTUS46 KPDT 210700 AAB
TAFALW
TAF AMD
KALW 210751Z 2108/2206 VRB03KT 1/4SM FZFG OVC002
      TEMPO 2108/2111 1/2SM FZFG OVC005
     FM211100 14004KT 1/2SM FZFG OVC003
     FM212000 17008KT 6SM BR SCT060 BKN250
     FM220300 16012KT 6SM -RA BR BKN035 OVC060=



000
FTUS46 KPDT 210600 AAA
TAFRDM
TAF AMD
KRDM 210646Z 2107/2206 VRB03KT 5SM BR VCSH BKN050 OVC090
     FM210900 15004KT P6SM BKN070
     FM211600 16005KT P6SM SCT050
     FM212100 17009KT P6SM -SHRA BKN050 OVC080
     FM220100 19012KT P6SM -SHRA OVC040=



000
FTUS46 KPDT 210600 AAA
TAFALW
TAF AMD
KALW 210623Z 2106/2206 VRB03KT 1 1/2SM BR BKN010 OVC110
     FM210900 16004KT 1SM BR FEW003 OVC008
     FM211100 14004KT 1/2SM FZFG OVC003
     FM212000 17008KT 6SM BR SCT060 BKN250
     FM220300 16012KT 6SM -RA BR BKN035 OVC060=



000
FTUS46 KPDT 210600 AAA
TAFDLS
TAF AMD
KDLS 210602Z 2106/2206 11003KT 6SM BR SCT090
     FM211000 11003KT 3SM BR SCT008 BKN040
     FM211300 07003KT 2SM BR OVC008
     FM211900 08004KT 6SM BR VCSH FEW008 OVC050
     FM212100 09005KT 5SM -RA BR BKN020 OVC040=



000
FTUS46 KPDT 210500
TAFDLS
TAF
KDLS 210539Z 2106/2206 11003KT 4SM BR SCT060 OVC090
     FM211000 11003KT 3SM BR SCT008 BKN040
     FM211300 07003KT 2SM BR OVC008
     FM211900 08004KT 6SM BR VCSH FEW008 OVC050
     FM212100 09005KT 5SM -RA BR BKN020 OVC040=



000
FTUS46 KPDT 210500
TAFPDT
TAF
KPDT 210539Z 2106/2206 31003KT 1/4SM FZFG VV002
     FM211100 14005KT 3SM BR BKN003 OVC070
     FM211400 31004KT 1/2SM FZFG OVC003
     FM211900 14007KT 6SM BR FEW005 SCT080 OVC250
     FM220300 15010KT 6SM -RA BR SCT025 OVC040=



000
FTUS46 KPDT 210500
TAFYKM
TAF
KYKM 210539Z 2106/2206 27004KT 5SM HZ BKN090
     FM211000 29003KT 3SM BR FEW010 BKN060
     FM212100 10003KT 3SM -SHRA BR BKN014 OVC035
     FM220200 30004KT 4SM -RA BR SCT014 OVC022=



000
FTUS46 KPDT 210500
TAFRDM
TAF
KRDM 210539Z 2106/2206 VRB03KT P6SM VCSH BKN050 OVC090
     FM210900 15004KT P6SM BKN070
     FM211600 16005KT P6SM SCT050
     FM212100 17009KT P6SM -SHRA BKN050 OVC080
     FM220100 19012KT P6SM -SHRA OVC040=



000
FTUS46 KPDT 210500
TAFALW
TAF
KALW 210539Z 2106/2206 12003KT 2SM BR OVC100
     FM210900 14004KT 1SM BR FEW003 SCT100
     FM211100 14004KT 1/2SM FZFG OVC003
     FM212000 17008KT 6SM BR SCT060 BKN250
     FM220300 16012KT 6SM -RA BR BKN035 OVC060=



000
FTUS46 KPDT 210500
TAFPSC
TAF
KPSC 210539Z 2106/2206 30004KT 4SM BR SCT015 SCT110
     FM211000 33003KT 3SM BR BKN015 OVC110
     FM211800 04005KT 6SM BR SCT015 OVC080
     FM220200 16006KT 6SM -RA BR SCT020 OVC070=



000
FTUS46 KPDT 210400 AAB
TAFPDT
TAF AMD
KPDT 210452Z 2105/2124 31003KT 1/4SM FZFG OVC002
     FM211500 14005KT 4SM BR BKN004 OVC070
     FM212000 14007KT 6SM BR BKN080 OVC150=



000
FTUS46 KPDT 210400 AAA
TAFALW
TAF AMD
KALW 210451Z 2105/2124 VRB04KT 1 1/2SM BR OVC090
     FM210900 13004KT 2SM BR BKN060
     FM211400 16005KT 3SM BR BKN045 OVC060
     FM212100 17008KT 6SM BR OVC080=



000
FTUS46 KPDT 210200 AAA
TAFPDT
TAF AMD
KPDT 210209Z 2102/2124 31004KT 1/2SM FZFG OVC002
      TEMPO 2102/2104 1/4SM FZFG
     FM211500 14005KT 4SM BR BKN004 OVC070
     FM212000 14007KT 6SM BR BKN080 OVC150=



000
FTUS46 KPDT 202300
TAFYKM
TAF
KYKM 202322Z 2100/2124 09004KT 5SM BR OVC090
     FM210300 27004KT 5SM BR BKN040 OVC100
     FM210900 28003KT 3SM BR BKN025 OVC040
     FM212100 15003KT 4SM -SHRA BR OVC030=



000
FTUS46 KPDT 202300
TAFALW
TAF
KALW 202322Z 2100/2124 VRB04KT 3SM BR OVC060
     FM210900 13004KT 2SM BR BKN060
     FM211400 16005KT 3SM BR BKN045 OVC060
     FM212100 17008KT 6SM BR OVC080=



000
FTUS46 KPDT 202300
TAFPDT
TAF
KPDT 202322Z 2100/2124 31004KT 1/2SM FZFG OVC002
     FM211500 14005KT 4SM BR BKN004 OVC070
     FM212000 14007KT 6SM BR BKN080 OVC150=



000
FTUS46 KPDT 202300
TAFRDM
TAF
KRDM 202322Z 2100/2124 14004KT P6SM OVC110
     FM210300 14004KT P6SM VCSH BKN050 OVC070
     FM210900 14005KT P6SM BKN060
     FM212100 17008KT P6SM -SHRA BKN040 OVC080=



000
FTUS46 KPDT 202300
TAFPSC
TAF
KPSC 202322Z 2100/2124 31005KT 4SM BR OVC060
     FM210600 VRB03KT 4SM BR SCT060 OVC090
     FM211800 14005KT 6SM BR OVC080=



000
FTUS46 KPDT 202300
TAFDLS
TAF
KDLS 202322Z 2100/2124 VRB03KT 6SM BR BKN100
     FM210300 12003KT 4SM BR BKN050 OVC080
     FM210900 11003KT 3SM BR BKN020 OVC030
     FM211500 07003KT 5SM BR SCT030 OVC060
     FM212000 08004KT 6SM -SHRA BR BKN030 OVC050=



000
FTUS46 KPDT 202100 AAC
TAFPSC
TAF AMD
KPSC 202102Z 2021/2118 30005KT 4SM BR SCT014 BKN120
     FM210300 VRB04KT 4SM BR SCT060 BKN090
     FM211500 12003KT 6SM BR SCT040 OVC080=



000
FTUS46 KPDT 202100 AAB
TAFPDT
TAF AMD
KPDT 202101Z 2021/2118 31006KT 1SM BR BKN004 BKN050
     FM210300 14004KT 3SM BR SCT050 BKN070
     FM211500 14004KT 6SM BR BKN040 OVC060=



000
FTUS46 KPDT 202100 AAA
TAFYKM
TAF AMD
KYKM 202100Z 2021/2118 VRB03KT 5SM BR SCT060 BKN090
     FM210300 27004KT 5SM BR BKN040 OVC100
     FM210900 28003KT 3SM BR BKN025 OVC040=



000
FTUS46 KPDT 202100 AAA
TAFPDT
TAF AMD
KPDT 202100Z 2021/2118 30006KT 1SM BR BKN004 BKN050
     FM210300 14004KT 3SM BR SCT050 BKN070
     FM211500 14004KT 6SM BR BKN040 OVC060=



000
FTUS46 KPDT 201900 AAB
TAFPSC
TAF AMD
KPSC 201935Z 2020/2118 12005KT 5SM BR SCT011
     FM202100 34003KT 6SM BR SCT080 BKN120
     FM210300 VRB04KT 4SM BR SCT060 BKN090
     FM211500 12003KT 6SM BR SCT040 OVC080=



000
FTUS46 KPDT 201800 AAA
TAFPSC
TAF AMD
KPSC 201847Z 2019/2118 12005KT 4SM BR SCT120
      TEMPO 2019/2021 2SM BR OVC005
     FM202100 34003KT 6SM BR SCT080 BKN120
     FM210300 VRB04KT 4SM BR SCT060 BKN090
     FM211500 12003KT 6SM BR SCT040 OVC080=



000
FTUS46 KPDT 201700
TAFDLS
TAF
KDLS 201735Z 2018/2118 VRB03KT 4SM BR VCSH FEW045 BKN080
     FM202100 VRB03KT 6SM BR SCT060 BKN100
     FM210300 12003KT 4SM BR BKN050 OVC080
     FM210900 11003KT 3SM BR BKN020 OVC030
     FM211500 07003KT 6SM BR SCT030 BKN060=



000
FTUS46 KPDT 201700
TAFYKM
TAF
KYKM 201735Z 2018/2118 VRB04KT 3SM BR SCT120
     FM202100 VRB03KT P6SM SCT040 BKN100
     FM210300 27004KT 5SM BR BKN040 OVC100
     FM210900 28003KT 3SM BR BKN025 OVC040=



000
FTUS46 KPDT 201700
TAFRDM
TAF
KRDM 201735Z 2018/2118 14005KT P6SM VCSH OVC100
     FM202300 09005KT P6SM VCSH SCT045 OVC080
     FM210300 15005KT P6SM VCSH BKN040 OVC060
     FM211000 14005KT P6SM BKN040=



000
FTUS46 KPDT 201700
TAFPSC
TAF
KPSC 201735Z 2018/2118 12005KT 4SM BR SCT120
     FM202100 34003KT 6SM BR SCT080 BKN120
     FM210300 VRB04KT 4SM BR SCT060 BKN090
     FM211500 12003KT 6SM BR SCT040 OVC080=



000
FTUS46 KPDT 201700
TAFALW
TAF
KALW 201735Z 2018/2118 08004KT 3SM BR SCT025 OVC060
     FM202000 VRB04KT 5SM BR SCT045 BKN060
     FM210300 14004KT 5SM BR SCT050 BKN100
     FM211400 16005KT 6SM BR BKN045 OVC060=



000
FTUS46 KPDT 201700
TAFPDT
TAF
KPDT 201735Z 2018/2118 VRB04KT 2SM BR OVC050
     FM202100 VRB04KT 5SM BR SCT050 BKN120
     FM210300 14004KT 3SM BR SCT050 BKN070
     FM211500 14004KT 6SM BR BKN040 OVC060=



000
FTUS46 KPDT 201600 AAB
TAFPDT
TAF AMD
KPDT 201640Z 2017/2112 VRB03KT 1SM BR VCSH SCT035 BKN050
      TEMPO 2017/2019 4SM BR
     FM201900 VRB04KT 5SM BR SCT050 BKN070
     FM202200 VRB05KT P6SM SCT040 BKN060
     FM210200 15005KT 6SM BR SCT050 BKN070=



000
FTUS46 KPDT 201600 AAA
TAFALW
TAF AMD
KALW 201617Z 2016/2112 20005KT 2SM BR OVC030
     FM201800 20004KT 5SM BR SCT045 OVC060
     FM202200 20006KT P6SM SCT045 BKN060
     FM210200 15004KT 6SM BR SCT050 BKN070=



000
FTUS46 KPDT 201500 AAA
TAFPDT
TAF AMD
KPDT 201553Z 2016/2112 VRB03KT 1SM -FZRA BR OVC040
      TEMPO 2016/2018 4SM BR BKN040 OVC070
     FM201800 VRB04KT 5SM BR SCT050 BKN070
     FM202200 VRB05KT P6SM SCT040 BKN060
     FM210200 15005KT 6SM BR SCT050 BKN070=



000
FTUS46 KPDT 201500 AAA
TAFRDM
TAF AMD
KRDM 201549Z 2016/2112 16005KT P6SM OVC100
     FM201800 17005KT P6SM SCT050 OVC100
     FM202300 17005KT P6SM VCSH SCT045 OVC060
     FM210500 16005KT P6SM SCT060 BKN080=



000
FTUS46 KPDT 201500 AAA
TAFYKM
TAF AMD
KYKM 201543Z 2016/2112 VRB04KT 3SM BR SCT120
     FM202000 VRB03KT P6SM SCT040 BKN100
     FM210300 27005KT 5SM BR BKN060=



000
FTUS46 KPDT 201500 AAA
TAFPSC
TAF AMD
KPSC 201516Z 2015/2112 VRB04KT 2SM BR SCT050 BKN070
      TEMPO 2015/2018 5SM SCT070
     FM201800 VRB03KT 6SM BR BKN040 BKN060
     FM210300 15004KT 6SM BR SCT060 BKN090=



000
FTUS46 KPDT 201100 CCB
TAFALW
TAF COR
KALW 201153Z 2012/2112 20005KT 2SM -FZRA BR OVC040
     FM201800 20004KT 5SM BR SCT045 OVC060
     FM202200 20006KT P6SM SCT045 BKN060
     FM210200 15004KT 6SM BR SCT050 BKN070=



000
FTUS46 KPDT 201100 CCA
TAFPSC
TAF COR
KPSC 201151Z 2012/2112 12005KT 5SM -FZRA BR OVC050
     FM201500 VRB04KT 4SM BR SCT050 BKN070
     FM201800 VRB03KT 6SM BR BKN040 BKN060
     FM210300 15004KT 6SM BR SCT060 BKN090=



000
FTUS46 KPDT 201100 CCA
TAFALW
TAF COR
KALW 201145Z 2012/2112 19006KT 3SM BR OVC050
     FM201300 20005KT 2SM -FZRA BR OVC040
     FM201800 20004KT 5SM BR SCT045 OVC060
     FM202200 20006KT P6SM SCT045 BKN060
     FM210200 15004KT 6SM BR SCT050 BKN070=



000
FTUS46 KPDT 201100
TAFYKM
TAF
KYKM 201139Z 2012/2112 VRB04KT 4SM -FZRA BR BKN040 OVC060
     FM201600 VRB03KT 3SM BR BKN035 OVC050
     FM202000 VRB03KT P6SM SCT040 BKN100
     FM210300 27005KT 5SM BR BKN060=



000
FTUS46 KPDT 201100
TAFRDM
TAF
KRDM 201139Z 2012/2112 15004KT P6SM SCT060 BKN150
     FM201400 16005KT 6SM -FZRA BR BKN025 OVC040
     FM201800 17005KT P6SM VCSH SCT045 OVC060
     FM202100 17005KT P6SM VCSH SCT045 OVC060
     FM210500 16005KT P6SM SCT060 BKN080=



000
FTUS46 KPDT 201100
TAFDLS
TAF
KDLS 201139Z 2012/2112 VRB03KT 5SM BR SCT015 BKN045
     FM202000 VRB03KT P6SM VCSH SCT025 BKN050
     FM210100 VRB03KT 6SM BR FEW020 BKN050
     FM210600 VRB02KT 6SM BR SCT012 BKN050=



000
FTUS46 KPDT 201100
TAFPDT
TAF
KPDT 201139Z 2012/2112 VRB03KT 2SM -FZRA BR OVC040
      TEMPO 2012/2016 1SM -FZRA BR BKN020 OVC035
     FM201700 VRB04KT 5SM BR SCT050 BKN070
     FM202200 VRB05KT P6SM SCT040 BKN060
     FM210200 15005KT 6SM BR SCT050 BKN070=



000
FTUS46 KPDT 201100
TAFALW
TAF
KALW 201139Z 2012/2112 VRB03KT 2SM BR FEW008 SCT013 OVC110
     FM201300 VRB04KT 2SM -FZRA BR BKN006 OVC025
     FM201800 VRB04KT 6SM BR BKN015 OVC030
     FM202200 21006KT P6SM SCT050 BKN080=



000
FTUS46 KPDT 201100
TAFPSC
TAF
KPSC 201139Z 2012/2112 VRB03KT 6SM BR FEW011 OVC110
     FM201300 VRB03KT 3SM -FZRA BR BKN009 OVC030
     FM201800 VRB03KT 6SM BR BKN030 OVC060=



000
FTUS46 KPDT 200600 AAA
TAFPDT
TAF AMD
KPDT 200635Z 2007/2106 VRB04KT 1/4SM FZFG VV002
      TEMPO 2007/2010 2SM BR BKN002 OVC090
     FM201000 VRB03KT 2SM -FZRA BR BKN020 OVC040
     FM201700 VRB04KT 6SM BR SCT050 BKN100
     FM202200 24006KT P6SM SCT060 BKN090=



000
FTUS46 KPDT 200600 AAA
TAFDLS
TAF AMD
KDLS 200607Z 2006/2106 VRB04KT 6SM BR FEW018 OVC090
     FM200800 VRB03KT 4SM -FZRA BR BKN015 OVC050
     FM201200 VRB03KT 6SM BR SCT015 BKN040
     FM202000 VRB03KT P6SM VCSH SCT025 BKN070=



000
FTUS46 KPDT 200500 AAA
TAFALW
TAF AMD
KALW 200522Z 2005/2106 VRB03KT 2SM BR FEW008 SCT013 OVC110
     FM201100 VRB04KT 2SM -FZRA BR BKN006 OVC025
     FM201800 VRB04KT 6SM BR BKN015 OVC030
     FM202200 21006KT P6SM SCT050 BKN080=



000
FTUS46 KPDT 200500
TAFALW
TAF
KALW 200520Z 2006/2106 VRB03KT 2SM BR BKN008 OVC013
     FM201100 VRB04KT 2SM -FZRA BR BKN006 OVC025
     FM201800 VRB04KT 6SM BR BKN015 OVC030
     FM202200 21006KT P6SM SCT050 BKN080=



000
FTUS46 KPDT 200500
TAFYKM
TAF
KYKM 200520Z 2006/2106 VRB03KT 6SM BR SCT090 OVC110
     FM201100 VRB04KT 3SM -FZRA BR BKN040 OVC060
     FM201600 VRB03KT 3SM BR BKN030 OVC050
     FM202000 VRB03KT P6SM SCT040 BKN100=



000
FTUS46 KPDT 200500
TAFPSC
TAF
KPSC 200520Z 2006/2106 VRB03KT 6SM BR FEW011 OVC110
     FM201000 VRB03KT 3SM -FZRA BR BKN009 OVC030
     FM201800 VRB03KT 6SM BR BKN030 OVC060=



000
FTUS46 KPDT 200500
TAFDLS
TAF
KDLS 200520Z 2006/2106 VRB04KT P6SM OVC090
     FM201000 VRB03KT 4SM -FZRA BR BKN018 OVC050
     FM201600 VRB03KT 6SM BR SCT015 BKN040
     FM202000 VRB03KT P6SM VCSH SCT025 BKN070=



000
FTUS46 KPDT 200500
TAFPDT
TAF
KPDT 200520Z 2006/2106 VRB04KT 1/4SM FZFG VV002
      TEMPO 2006/2010 2SM BR BKN002 OVC090
     FM201000 VRB03KT 2SM -FZRA BR BKN020 OVC040
     FM201700 VRB04KT 6SM BR SCT050 BKN100
     FM202200 24006KT P6SM SCT060 BKN090=



000
FTUS46 KPDT 200500
TAFRDM
TAF
KRDM 200520Z 2006/2106 VRB04KT P6SM SCT060 BKN080 OVC100
     FM200800 VRB04KT 5SM -FZRA BR BKN025 OVC040
     FM201300 15005KT P6SM VCSH SCT040 OVC070
     FM202000 16005KT P6SM VCSH SCT050 BKN080=



000
FTUS46 KPDT 200400 AAC
TAFALW
TAF AMD
KALW 200403Z 2004/2024 VRB03KT 2SM BR OVC008
     FM201000 19004KT 2SM -FZRA BR BKN010 OVC030
     FM201900 20004KT 6SM BR BKN015=



000
FTUS46 KPDT 200400 AAC
TAFALW
TAF AMD
KALW 200403Z 2004/2024 VRB03KT 2SM BR OVC008
     FM201000 19004KT 2SM -FZRA BR BKN010 OVC030
     FM201900 20004KT 6SM BR BKN015=



000
FTUS46 KPDT 200300 AAA
TAFPDT
TAF AMD
KPDT 200359Z 2004/2024 29006KT 1/4SM FZFG VV002
      TEMPO 2004/2008 2SM BR BKN002 OVC100
     FM200900 VRB03KT 2SM -FZRA BR BKN020 OVC035
     FM201800 13004KT 6SM BR SCT050 BKN100=



000
FTUS46 KPDT 200300 AAA
TAFPDT
TAF AMD
KPDT 200359Z 2004/2024 29006KT 1/4SM FZFG VV002
      TEMPO 2004/2008 2SM BR BKN002 OVC100
     FM200900 VRB03KT 2SM -FZRA BR BKN020 OVC035
     FM201800 13004KT 6SM BR SCT050 BKN100=



000
FTUS46 KPDT 200200 AAB
TAFALW
TAF AMD
KALW 200240Z 2003/2024 VRB03KT 2SM BR BKN010 OVC150
     FM201000 19004KT 2SM -FZRA BR BKN010 OVC030
     FM201900 20004KT 6SM BR BKN015=



000
FTUS46 KPDT 200200 AAB
TAFALW
TAF AMD
KALW 200240Z 2003/2024 VRB03KT 2SM BR BKN010 OVC150
     FM201000 19004KT 2SM -FZRA BR BKN010 OVC030
     FM201900 20004KT 6SM BR BKN015=



000
FTUS46 KPDT 200100 AAA
TAFPSC
TAF AMD
KPSC 200133Z 2002/2024 VRB03KT 6SM BR FEW011 OVC150
     FM201000 VRB03KT 3SM -FZRA BR BKN010 OVC030
     FM201800 32003KT 6SM BR BKN030=



000
FTUS46 KPDT 200100 AAA
TAFALW
TAF AMD
KALW 200133Z 2002/2024 VRB03KT 2SM BR FEW006 OVC150
     FM201000 19004KT 2SM -FZRA BR BKN010 OVC030
     FM201900 20004KT 6SM BR BKN015=



000
FTUS46 KPDT 200100 AAA
TAFYKM
TAF AMD
KYKM 200132Z 2002/2024 VRB04KT 6SM BR BKN110
     FM200500 27004KT 4SM BR OVC120
     FM200900 27004KT 3SM -FZRA BR BKN040 OVC060
     FM201200 VRB03KT 3SM BR BKN030
     FM202000 VRB03KT P6SM SCT040 BKN150=



000
FTUS46 KPDT 200100 AAA
TAFRDM
TAF AMD
KRDM 200131Z 2002/2024 VRB04KT P6SM BKN060 OVC150
     FM200500 18004KT P6SM -FZRA BKN040 OVC060
     FM201200 15005KT P6SM VCSH SCT030 OVC050=



000
FTUS46 KPDT 200100 AAA
TAFPDT
TAF AMD
KPDT 200130Z 2002/2024 29006KT 1 1/2SM BR BKN002 OVC200
     FM200900 VRB03KT 2SM -FZRA BR BKN020 OVC035
     FM201800 13004KT 6SM BR SCT050 BKN100=



000
FTUS46 KPDT 192300
TAFPSC
TAF
KPSC 192330Z 2000/2024 VRB03KT 4SM BR OVC011
     FM201000 VRB03KT 3SM -FZRA BR BKN010 OVC030
     FM201800 32003KT 6SM BR BKN030=



000
FTUS46 KPDT 192300
TAFYKM
TAF
KYKM 192330Z 2000/2024 07004KT 6SM BR BKN150
     FM200500 27004KT 4SM BR OVC120
     FM200900 27004KT 3SM -FZRA BR BKN040 OVC060
     FM201200 VRB03KT 3SM BR BKN030
     FM202000 VRB03KT P6SM SCT040 BKN150=



000
FTUS46 KPDT 192300
TAFPDT
TAF
KPDT 192330Z 2000/2024 29006KT 1SM BR BKN004 BKN200
     FM200900 VRB03KT 2SM -FZRA BR BKN020 OVC035
     FM201800 13004KT 6SM BR SCT050 BKN100=



000
FTUS46 KPDT 192300
TAFALW
TAF
KALW 192330Z 2000/2024 VRB03KT 1SM BR OVC004
     FM201000 19004KT 2SM -FZRA BR BKN010 OVC030
     FM201900 20004KT 6SM BR BKN015=



000
FTUS46 KPDT 192300
TAFDLS
TAF
KDLS 192330Z 2000/2024 12004KT 6SM BR BKN150
     FM200500 11003KT 4SM -FZRA BR OVC018
     FM201300 VRB03KT 4SM BR OVC015
     FM201900 VRB03KT 6SM BR VCSH BKN020 OVC070=



000
FTUS46 KPDT 192300
TAFRDM
TAF
KRDM 192330Z 2000/2024 32007KT P6SM BKN120
     FM200200 18004KT P6SM -FZRA BKN040 OVC060
     FM200700 15005KT P6SM VCSH SCT030 OVC050=



000
FTUS46 KPDT 192100 AAB
TAFALW
TAF AMD
KALW 192101Z 1921/2018 28004KT 1SM BR FEW007 BKN180
     FM200100 VRB03KT 3SM BR SCT015 OVC120
     FM201000 19004KT 3SM -FZRA BR BKN030 OVC050=



000
FTUS46 KPDT 192100 AAB
TAFDLS
TAF AMD
KDLS 192100Z 1921/2018 12004KT 4SM BR OVC013
     FM200500 10005KT 6SM -FZRA OVC015
     FM201500 11003KT 6SM BR OVC015=



000
FTUS46 KPDT 192000 AAB
TAFPSC
TAF AMD
KPSC 192043Z 1921/2018 34003KT 4SM BR SCT015 OVC150
      TEMPO 1921/1924 1SM BR OVC008
     FM201000 VRB03KT 6SM -FZRA BKN030 OVC050
     FM201600 VRB03KT 6SM BR OVC030=



000
FTUS46 KPDT 191900 AAA
TAFPSC
TAF AMD
KPSC 191905Z 1919/2018 VRB04KT 4SM BR OVC007
     FM192100 34003KT P6SM SCT015 OVC150
     FM201000 VRB03KT 6SM -FZRA BKN030 OVC050
     FM201600 VRB03KT 6SM BR OVC030=



000
FTUS46 KPDT 191800 AAA
TAFALW
TAF AMD
KALW 191835Z 1919/2018 VRB04KT 1SM BR BKN004 BKN200
     FM192100 32004KT 4SM BR SCT011 OVC180
     FM200100 VRB03KT 3SM BR SCT015 OVC120
     FM201000 19004KT 3SM -FZRA BR BKN030 OVC050=



000
FTUS46 KPDT 191800 AAA
TAFPDT
TAF AMD
KPDT 191834Z 1919/2018 13004KT 1SM BR FEW004 BKN200
     FM192000 VRB03KT 3SM BR BKN200
     FM200500 VRB05KT 6SM BR SCT030 OVC080
     FM200900 VRB03KT P6SM -FZRA SCT025 OVC035=



000
FTUS46 KPDT 191800 AAA
TAFDLS
TAF AMD
KDLS 191800Z 1918/2018 11003KT 4SM BR OVC010
     FM192100 11004KT 6SM BR OVC012
     FM200500 10005KT 6SM -FZRA OVC015
     FM201500 11003KT 6SM BR OVC015=



000
FTUS46 KPDT 191700
TAFALW
TAF
KALW 191720Z 1918/2018 VRB04KT 1SM BR SCT002 BKN200
     FM192100 32004KT 4SM BR SCT011 OVC180
     FM200100 VRB03KT 3SM BR SCT015 OVC120
     FM201000 19004KT 3SM -FZRA BR BKN030 OVC050=



000
FTUS46 KPDT 191700
TAFRDM
TAF
KRDM 191720Z 1918/2018 VRB03KT P6SM OVC100
     FM192100 10006KT P6SM BKN080 OVC150
     FM200000 15005KT P6SM -RA BKN040 OVC060
     FM200700 16005KT P6SM -SHRA SCT060 BKN090=



000
FTUS46 KPDT 191700
TAFPDT
TAF
KPDT 191720Z 1918/2018 16004KT 1SM BR SCT002 BKN006
     FM192000 VRB03KT 3SM BR SCT006
     FM200500 VRB05KT 6SM BR SCT030 OVC080
     FM200900 VRB03KT P6SM -FZRA SCT025 OVC035=



000
FTUS46 KPDT 191700
TAFDLS
TAF
KDLS 191720Z 1918/2018 11003KT 6SM BR OVC009
     FM192100 11004KT 6SM BR OVC012
     FM200500 10005KT 6SM -FZRA OVC015
     FM201500 11003KT 6SM BR OVC015=



000
FTUS46 KPDT 191700
TAFPSC
TAF
KPSC 191720Z 1918/2018 07004KT 1SM BR OVC007
     FM192100 34003KT P6SM SCT015 OVC150
     FM201000 VRB03KT 6SM -FZRA BKN030 OVC050
     FM201600 VRB03KT 6SM BR OVC030=



000
FTUS46 KPDT 191700
TAFYKM
TAF
KYKM 191720Z 1918/2018 VRB04KT 4SM BR BKN150
     FM192000 07004KT 6SM BR BKN150
     FM200300 27004KT 5SM BR OVC100
     FM200800 27004KT 5SM -FZRA BR BKN040 OVC060
     FM201500 08003KT 5SM BR SCT030 SCT200=



000
FTUS46 KPDT 191200 AAA
TAFPDT
TAF AMD
KPDT 191222Z 1912/2012 VRB03KT 1/4SM FZFG VV002
      TEMPO 1912/1916 2SM BR OVC005
     FM192000 VRB03KT 2SM BR OVC005
     FM200800 VRB03KT P6SM -FZRA SCT025 OVC035=



000
FTUS46 KPDT 191100 CCA
TAFPSC
TAF COR
KPSC 191158Z 1912/2012 VRB03KT 5SM BR OVC006
      TEMPO 1912/1914 1SM BR OVC003
     FM191500 VRB02KT 3SM BR OVC006
      TEMPO 1915/1919 1/2SM FZFG VV002
     FM192100 VRB03KT P6SM SCT015 OVC150
     FM200600 VRB03KT P6SM -FZRA BKN050 OVC070=



000
FTUS46 KPDT 191100 CCA
TAFALW
TAF COR
KALW 191154Z 1912/2012 VRB04KT 1/4SM FZFG VV001
     FM191700 VRB04KT 1SM BR SCT005 OVC200
     FM192100 VRB04KT 2SM BR SCT011 OVC200
     FM200100 VRB03KT 4SM BR SCT015 OVC120
     FM200900 19004KT P6SM -FZRA BKN035 OVC050=



000
FTUS46 KPDT 191100 CCA
TAFYKM
TAF COR
KYKM 191149Z 1912/2012 27004KT 4SM BR SCT010 OVC200
     FM192000 07004KT 6SM BR FEW015 OVC100
     FM200400 27004KT 5SM BR OVC080
     FM200700 27004KT P6SM -FZRA BKN040 OVC060=



000
FTUS46 KPDT 191100 CCA
TAFRDM
TAF COR
KRDM 191142Z 1912/2012 VRB03KT P6SM OVC150
     FM191800 VRB03KT P6SM SCT090 OVC150
     FM192100 VRB05KT P6SM BKN090 OVC150
     FM200000 18005KT P6SM -RA BKN040 OVC060
     FM200700 17005KT P6SM -SHRA SCT060 BKN090=



000
FTUS46 KPDT 191100
TAFRDM
TAF
KRDM 191139Z 1912/2012 VRB03KT P6SM OVC150
     FM191800 VRB03KT P6SM SCT090 OVC150
     FM192100 VRB05KT P6SM BKN090 OVC200
     FM200000 18005KT P6SM -RA BKN040 OVC060
     FM200700 17005KT P6SM -SHRA SCT060 BKN090=



000
FTUS46 KPDT 191100
TAFYKM
TAF
KYKM 191139Z 1912/2012 VRB04KT 6SM BR FEW012 OVC250
     FM191400 VRB04KT 4SM BR SCT010 OVC250
     FM192000 VRB04KT P6SM FEW015 OVC250=



000
FTUS46 KPDT 191100
TAFPSC
TAF
KPSC 191139Z 1912/2012 VRB03KT 5SM BR OVC007
      TEMPO 1912/1914 1SM BR OVC003
     FM191500 VRB02KT 3SM BR OVC006
      TEMPO 1915/1919 1/2SM FZFG VV002
     FM192100 VRB03KT P6SM SCT015 OVC250=



000
FTUS46 KPDT 191100
TAFDLS
TAF
KDLS 191139Z 1912/2012 11003KT 6SM BR OVC009
     FM191900 11004KT 6SM BR OVC012
     FM200500 10003KT P6SM -FZRA OVC015=



000
FTUS46 KPDT 191100
TAFALW
TAF
KALW 191139Z 1912/2012 09003KT 1/4SM FZFG VV001
     FM191600 VRB03KT 5SM BR SCT005 OVC250
     FM192100 VRB03KT P6SM SCT011 OVC250=



000
FTUS46 KPDT 191100
TAFPDT
TAF
KPDT 191139Z 1912/2012 VRB03KT 1/4SM FZFG VV002
     FM192000 VRB03KT 2SM BR OVC005
     FM200800 VRB03KT P6SM -FZRA SCT025 OVC035=



000
FTUS46 KPDT 191000 AAA
TAFPSC
TAF AMD
KPSC 191010Z 1910/2006 VRB03KT 5SM BR OVC007
      TEMPO 1910/1914 1SM BR OVC003
     FM191500 VRB02KT 3SM BR OVC006
      TEMPO 1915/1919 1/2SM FZFG VV002
     FM192100 VRB03KT P6SM SCT015 OVC250=



000
FTUS46 KPDT 190600 AAA
TAFYKM
TAF AMD
KYKM 190601Z 1906/2006 VRB04KT 5SM BR OVC250
     FM191000 VRB04KT 6SM BR FEW012 OVC250
     FM191400 VRB04KT 4SM BR SCT010 OVC250
     FM192000 VRB04KT P6SM FEW015 OVC250=



000
FTUS46 KPDT 190600 AAA
TAFPDT
TAF AMD
KPDT 190600Z 1906/2006 VRB04KT 2SM BR SCT002 OVC250
      TEMPO 1906/1910 1/4SM FZFG VV001
     FM191000 VRB03KT 1/4SM FZFG VV002
     FM192000 VRB03KT 1SM BR OVC002=



000
FTUS46 KPDT 190500
TAFPSC
TAF
KPSC 190520Z 1906/2006 VRB03KT 6SM BR OVC009
     FM190900 VRB03KT 1SM BR OVC005
      TEMPO 1909/1912 1/4SM FZFG VV002
     FM191500 VRB02KT 3SM BR OVC006
      TEMPO 1915/1919 1/2SM FZFG VV002
     FM192100 VRB03KT P6SM SCT015 OVC250=



000
FTUS46 KPDT 190500
TAFYKM
TAF
KYKM 190520Z 1906/2006 VRB04KT P6SM OVC250
     FM191000 VRB04KT 6SM BR FEW012 OVC250
     FM191400 VRB04KT 4SM BR SCT010 OVC250
     FM192000 VRB04KT P6SM FEW015 OVC250=



000
FTUS46 KPDT 190500
TAFPDT
TAF
KPDT 190520Z 1906/2006 VRB04KT 2SM BR SCT002 OVC250
      TEMPO 1906/1910 1/4SM FZFG VV002
     FM191000 VRB03KT 1/4SM FZFG VV002
     FM192000 VRB03KT 1SM BR OVC002=



000
FTUS46 KPDT 190500
TAFALW
TAF
KALW 190520Z 1906/2006 VRB03KT 1/4SM FZFG VV002
     FM191000 09003KT 1/4SM FZFG VV001
     FM191600 VRB03KT 5SM BR SCT005 OVC250
     FM192100 VRB03KT P6SM SCT011 OVC250=



000
FTUS46 KPDT 190500
TAFRDM
TAF
KRDM 190520Z 1906/2006 VRB03KT P6SM OVC200
     FM190900 VRB03KT P6SM OVC200
     FM191800 VRB03KT P6SM SCT090 OVC200
     FM192100 VRB05KT P6SM BKN090 OVC200=



000
FTUS46 KPDT 190500
TAFDLS
TAF
KDLS 190520Z 1906/2006 VRB03KT P6SM OVC010
     FM190900 11003KT 6SM BR OVC007
     FM191500 09004KT 5SM BR OVC005
     FM191900 11004KT 6SM BR OVC007=



000
FTUS46 KPDT 190400 AAC
TAFPDT
TAF AMD
KPDT 190441Z 1905/1924 VRB04KT 2SM BR SCT002 OVC250
      TEMPO 1905/1906 1/4SM FZFG VV002
     FM190600 00000KT 1/2SM FZFG VV002
      TEMPO 1906/1910 1SM BR
     FM191000 18003KT 1/4SM FZFG VV002
     FM192000 36003KT 1SM BR OVC002=



000
FTUS46 KPDT 190400 AAB
TAFPDT
TAF AMD
KPDT 190440Z 1905/1924 VRB04KT 1SM BR SCT002 OVC250
      TEMPO 1905/1906 1/4SM FZFG VV002
     FM190600 00000KT 1/2SM FZFG VV002
      TEMPO 1906/1910 1SM BR
     FM191000 18003KT 1/4SM FZFG VV002
     FM192000 36003KT 1SM BR OVC002=



000
FTUS46 KPDT 190400 AAB
TAFDLS
TAF AMD
KDLS 190400Z 1904/1924 VRB03KT P6SM OVC010
     FM190600 VRB02KT P6SM SCT011 OVC200
      TEMPO 1906/1910 BKN010 OVC200
     FM191000 11003KT 6SM BR OVC007
     FM191500 09004KT 5SM BR OVC005
     FM191900 11004KT 6SM BR OVC007=



000
FTUS46 KPDT 190300 AAC
TAFPSC
TAF AMD
KPSC 190346Z 1904/1924 VRB03KT 6SM BR OVC009
     FM190600 VRB03KT 2SM BR OVC009
     FM190900 VRB03KT 1SM BR OVC005
      TEMPO 1909/1912 1/4SM FZFG VV002
     FM191200 VRB02KT 3SM BR OVC004
      TEMPO 1915/1919 1/2SM FZFG OVC004
     FM191900 00000KT 2SM BR OVC009=



000
FTUS46 KPDT 190300 AAB
TAFALW
TAF AMD
KALW 190344Z 1904/1924 VRB03KT 1/4SM FZFG VV002
      TEMPO 1904/1906 2SM BR OVC002
     FM190600 09003KT 1/4SM FZFG VV001
     FM191600 VRB03KT 5SM BR SCT005 OVC250
     FM192100 VRB03KT P6SM SCT011 OVC250=



000
FTUS46 KPDT 190300 AAA
TAFPDT
TAF AMD
KPDT 190343Z 1904/1924 VRB04KT 1/4SM FZFG VV001
      TEMPO 1904/1906 2SM BR SCT002 OVC250
     FM190600 00000KT 1/2SM FZFG VV002
      TEMPO 1906/1910 1SM BR
     FM191000 18003KT 1/4SM FZFG VV002
     FM192000 36003KT 1SM BR OVC002=



    US Dept of Commerce
    National Oceanic and Atmospheric Administration
    National Weather Service
    1325 East West Highway
    Silver Spring, MD 20910
    Page Author: NWS Internet Services Team
Disclaimer
Information Quality
Credits
Glossary
Privacy Policy
Freedom of Information Act (FOIA)
About Us
Career Opportunities